Terminal Aerodrome Forecast
Issued by NWS Grand Forks, ND

Home | Current Version | Previous Version | Text Only | Print | Product List | Glossary Off
Versions: 1 2 3 4 5 6 7 8 9 10 11 12 13 14 15 16

000
FTUS43 KFGF 250520
TAFFAR
TAF
KFAR 250520Z 2506/2606 VRB06KT P6SM SKC
     FM251500 21012G18KT P6SM FEW250
     FM251800 21015G24KT P6SM SKC
     FM260100 20012G18KT P6SM SCT200=

USA.gov is the U.S. government's official web portal to all federal, state and local government web resources and services.